Time;durP1;ratioP1;P1;durP2;ratioP2;P2;SDS_P1;SDS_P2;PMS_P1;PMS_P2;Temp;Humidity;BMP_temperature;BMP_pressure;BME280_temperature;BME280_humidity;BME280_pressure;Samples;Min_cycle;Max_cycle;Signal;HPM_P1;HPM_P2
2022/01/30 00:00:36;;;;;;;108.15;54.90;;;;;;;-3.38;100.00;97171.13;5009286;28;20045;-61
2022/01/30 00:03:01;;;;;;;107.97;52.60;;;;;;;-3.37;100.00;97168.50;5009569;28;20493;-61
2022/01/30 00:05:28;;;;;;;101.30;52.30;;;;;;;-3.30;100.00;97171.88;5010372;28;20105;-62
2022/01/30 00:07:54;;;;;;;91.05;48.40;;;;;;;-3.32;100.00;97169.31;5010915;28;20033;-61
2022/01/30 00:10:19;;;;;;;107.13;50.95;;;;;;;-3.37;100.00;97160.78;5011033;28;20021;-61
2022/01/30 00:12:50;;;;;;;103.75;50.63;;;;;;;-3.42;100.00;97161.75;5011040;28;20152;-60
2022/01/30 00:15:17;;;;;;;102.55;49.90;;;;;;;-3.43;100.00;97155.72;5009422;28;20112;-60
2022/01/30 00:17:50;;;;;;;99.40;47.60;;;;;;;-3.46;100.00;97153.19;5009549;28;20135;-61
2022/01/30 00:20:25;;;;;;;91.93;48.60;;;;;;;-3.37;100.00;97152.22;5009630;28;20026;-60
2022/01/30 00:23:06;;;;;;;94.78;48.20;;;;;;;-3.49;100.00;97138.63;5010523;28;20113;-60
2022/01/30 00:25:44;;;;;;;106.30;53.10;;;;;;;-3.56;100.00;97128.41;5010799;28;20089;-61
2022/01/30 00:28:12;;;;;;;102.10;49.47;;;;;;;-3.62;100.00;97125.06;5010329;28;20417;-61
2022/01/30 00:30:37;;;;;;;92.50;47.40;;;;;;;-3.65;100.00;97119.94;5010244;28;20505;-61
2022/01/30 00:33:04;;;;;;;95.70;46.00;;;;;;;-3.67;100.00;97121.69;5010193;28;20021;-60
2022/01/30 00:35:30;;;;;;;124.22;50.08;;;;;;;-3.65;100.00;97119.09;5009374;28;20041;-61
2022/01/30 00:37:55;;;;;;;103.30;47.65;;;;;;;-3.67;100.00;97123.41;5010037;28;20022;-61
2022/01/30 00:40:21;;;;;;;107.68;51.10;;;;;;;-3.75;100.00;97123.53;5010689;28;20026;-61
2022/01/30 00:42:47;;;;;;;114.65;50.60;;;;;;;-3.80;100.00;97115.00;5010613;28;20501;-61
2022/01/30 00:45:12;;;;;;;99.88;47.97;;;;;;;-3.90;100.00;97116.81;5013598;28;20138;-61
2022/01/30 00:47:38;;;;;;;124.05;47.83;;;;;;;-3.88;100.00;97115.06;5013332;28;21011;-61
2022/01/30 00:50:04;;;;;;;92.38;48.75;;;;;;;-3.91;100.00;97122.84;5015210;28;20061;-61
2022/01/30 00:52:29;;;;;;;103.07;48.00;;;;;;;-3.88;100.00;97139.09;5013988;28;20037;-61
2022/01/30 00:54:55;;;;;;;102.45;50.10;;;;;;;-3.85;100.00;97140.81;5014029;28;20054;-61
2022/01/30 00:57:20;;;;;;;117.28;48.22;;;;;;;-3.85;100.00;97145.09;5013347;28;20397;-62
2022/01/30 00:59:45;;;;;;;83.30;45.05;;;;;;;-3.90;100.00;97139.97;5013982;28;20033;-62
2022/01/30 01:02:11;;;;;;;94.13;46.22;;;;;;;-3.94;100.00;97143.47;5013955;28;20054;-61
2022/01/30 01:04:36;;;;;;;105.10;49.53;;;;;;;-3.90;100.00;97140.84;5013522;28;20579;-62
2022/01/30 01:07:02;;;;;;;105.65;49.53;;;;;;;-3.83;100.00;97140.78;5013412;28;20545;-61
2022/01/30 01:09:35;;;;;;;116.97;47.70;;;;;;;-3.87;100.00;97142.50;5012990;28;20452;-62
2022/01/30 01:26:05;;;;;;;90.85;45.20;;;;;;;-4.14;100.00;97141.13;4993784;28;20038;-61
2022/01/30 01:28:30;;;;;;;104.20;46.50;;;;;;;-4.12;100.00;97142.78;5013095;28;20028;-60
2022/01/30 01:30:57;;;;;;;99.57;44.47;;;;;;;-4.11;100.00;97138.50;5013106;28;20092;-61
2022/01/30 01:33:26;;;;;;;114.32;47.28;;;;;;;-4.15;100.00;97129.13;5012734;28;20025;-61
2022/01/30 01:35:52;;;;;;;114.30;45.83;;;;;;;-4.22;100.00;97123.19;5012275;28;20108;-61
2022/01/30 01:38:17;;;;;;;89.55;46.97;;;;;;;-4.22;100.00;97128.34;5013116;28;20486;-61
2022/01/30 01:40:55;;;;;;;94.00;45.05;;;;;;;-4.27;100.00;97127.53;5012632;28;20029;-61
2022/01/30 01:43:22;;;;;;;119.32;43.45;;;;;;;-4.28;100.00;97121.53;5011521;28;20083;-61
2022/01/30 01:45:51;;;;;;;101.30;41.53;;;;;;;-3.99;100.00;97111.78;5011849;28;20030;-61
2022/01/30 01:48:16;;;;;;;122.13;43.92;;;;;;;-4.17;100.00;97116.28;5012983;28;20018;-61
2022/01/30 01:50:46;;;;;;;86.13;44.50;;;;;;;-4.29;100.00;97124.13;5012507;28;20520;-61
2022/01/30 01:53:14;;;;;;;102.80;46.05;;;;;;;-4.30;100.00;97128.41;5012562;28;20493;-60
2022/01/30 01:55:41;;;;;;;105.53;46.47;;;;;;;-4.22;100.00;97125.75;5011142;28;20462;-61
2022/01/30 01:58:06;;;;;;;97.85;43.88;;;;;;;-4.10;100.00;97119.63;5012490;28;20018;-61
2022/01/30 02:00:33;;;;;;;96.13;45.50;;;;;;;-4.20;100.00;97121.44;5011874;28;20049;-61
2022/01/30 02:02:58;;;;;;;102.30;45.30;;;;;;;-4.05;100.00;97111.00;5012706;28;20100;-61
2022/01/30 02:05:29;;;;;;;103.00;43.90;;;;;;;-4.23;100.00;97111.19;5012006;28;20055;-61
2022/01/30 02:25:12;;;;;;;90.83;44.00;;;;;;;-4.24;100.00;97076.91;5010286;28;20056;-61
2022/01/30 02:27:27;;;;;;;;;;;;;;;-4.27;100.00;97073.53;5011554;28;20052;-60
2022/01/30 02:29:53;;;;;;;96.05;42.85;;;;;;;-4.25;100.00;97071.78;5008683;28;19913;-61
2022/01/30 02:32:19;;;;;;;97.15;46.58;;;;;;;-4.23;100.00;97072.63;5011644;28;20030;-61
2022/01/30 02:34:45;;;;;;;99.45;48.47;;;;;;;-4.29;100.00;97067.56;5010202;28;20032;-60
2022/01/30 02:37:13;;;;;;;96.82;42.90;;;;;;;-4.36;100.00;97064.19;5012076;28;20440;-61
2022/01/30 02:39:39;;;;;;;109.55;41.72;;;;;;;-4.27;100.00;97063.25;5010268;28;20405;-61
2022/01/30 02:42:04;;;;;;;105.80;43.72;;;;;;;-4.24;100.00;97063.19;5011400;28;20036;-61
2022/01/30 02:44:52;;;;;;;98.60;41.47;;;;;;;-4.28;100.00;97054.66;5004896;28;20446;-61
2022/01/30 02:50:11;;;;;;;104.78;42.67;;;;;;;-4.45;100.00;97054.84;5010492;28;20038;-61
2022/01/30 02:52:40;;;;;;;92.82;41.50;;;;;;;-4.50;100.00;97051.50;5007523;28;20033;-61
2022/01/30 02:55:07;;;;;;;96.00;42.58;;;;;;;-4.47;100.00;97065.16;5010836;28;20036;-60
2022/01/30 02:57:32;;;;;;;97.50;45.70;;;;;;;-4.45;100.00;97070.28;5010990;28;20112;-61
2022/01/30 02:59:58;;;;;;;128.98;42.40;;;;;;;-4.39;100.00;97066.81;5011255;28;20144;-60
2022/01/30 03:02:23;;;;;;;99.93;44.33;;;;;;;-4.55;100.00;97063.53;5010892;28;20405;-61
2022/01/30 03:04:48;;;;;;;84.88;43.33;;;;;;;-4.56;100.00;97064.38;5011402;28;20171;-61
2022/01/30 03:07:14;;;;;;;95.68;43.72;;;;;;;-4.49;100.00;97061.75;5011142;28;20029;-60
2022/01/30 03:09:39;;;;;;;76.18;38.17;;;;;;;-4.46;100.00;97059.13;5011441;28;20092;-60
2022/01/30 03:12:06;;;;;;;78.97;40.08;;;;;;;-4.59;100.00;97055.00;5010987;28;20018;-61
2022/01/30 03:14:31;;;;;;;88.63;41.30;;;;;;;-4.56;100.00;97054.09;5011100;28;20096;-60
2022/01/30 03:16:56;;;;;;;76.93;40.67;;;;;;;-4.52;100.00;97051.50;5011043;28;20441;-61
2022/01/30 03:19:22;;;;;;;94.43;39.67;;;;;;;-4.55;100.00;97050.66;5010656;28;20049;-61
2022/01/30 03:21:47;;;;;;;89.18;38.72;;;;;;;-4.58;100.00;97049.00;5009893;28;20145;-61
2022/01/30 03:24:13;;;;;;;89.97;40.70;;;;;;;-4.53;100.00;97038.66;5010549;28;20109;-60
2022/01/30 03:26:40;;;;;;;86.38;42.38;;;;;;;-4.41;100.00;97037.69;5010786;28;20144;-60
2022/01/30 03:29:07;;;;;;;84.55;41.08;;;;;;;-4.43;100.00;97047.97;5010739;28;20030;-61
2022/01/30 03:31:34;;;;;;;93.78;42.20;;;;;;;-4.29;100.00;97042.66;5010432;28;20417;-61
2022/01/30 03:34:00;;;;;;;96.70;44.80;;;;;;;-4.28;100.00;97035.81;5011185;28;20644;-61
2022/01/30 03:36:25;;;;;;;89.25;38.60;;;;;;;-4.22;100.00;97044.28;5010379;28;20029;-60
2022/01/30 03:38:51;;;;;;;75.70;38.58;;;;;;;-4.23;100.00;97034.03;5010476;28;20022;-61
2022/01/30 03:41:16;;;;;;;94.63;38.13;;;;;;;-4.24;100.00;97037.47;5010906;28;20092;-60
2022/01/30 03:43:41;;;;;;;76.40;38.15;;;;;;;-4.12;100.00;97039.88;5010386;28;20379;-60
2022/01/30 03:46:07;;;;;;;69.30;37.03;;;;;;;-4.26;100.00;97034.09;5010202;28;20034;-60
2022/01/30 03:48:32;;;;;;;73.88;37.42;;;;;;;-4.30;100.00;97032.41;5010258;28;20025;-61
2022/01/30 03:50:58;;;;;;;76.97;37.38;;;;;;;-4.25;100.00;97026.34;5010807;28;20481;-60
2022/01/30 03:53:23;;;;;;;63.33;35.90;;;;;;;-4.41;100.00;97029.97;5010685;28;20488;-61
2022/01/30 03:55:48;;;;;;;67.50;34.55;;;;;;;-4.38;100.00;97029.94;5009729;28;20029;-61
2022/01/30 03:58:14;;;;;;;67.38;35.70;;;;;;;-4.49;100.00;97035.19;5010070;28;20026;-61
2022/01/30 04:00:40;;;;;;;110.93;35.63;;;;;;;-4.53;100.00;97030.94;5010047;28;20474;-61
2022/01/30 04:03:05;;;;;;;80.13;37.08;;;;;;;-4.46;100.00;97030.00;5010729;28;20022;-61
2022/01/30 04:05:31;;;;;;;80.85;36.72;;;;;;;-4.46;100.00;97032.59;5010204;28;20034;-61
2022/01/30 04:08:01;;;;;;;68.80;35.45;;;;;;;-4.64;100.00;97029.34;5010009;28;20045;-60
2022/01/30 04:10:27;;;;;;;70.47;38.28;;;;;;;-4.61;100.00;97036.19;5009526;28;20022;-61
2022/01/30 04:12:52;;;;;;;73.63;38.42;;;;;;;-4.65;100.00;97034.47;5010058;28;20091;-61
2022/01/30 04:15:18;;;;;;;71.13;34.95;;;;;;;-4.66;100.00;97033.66;5009517;28;20052;-61
2022/01/30 04:17:43;;;;;;;81.60;36.20;;;;;;;-4.66;100.00;97040.50;5010366;28;20061;-60
2022/01/30 04:20:09;;;;;;;99.63;38.85;;;;;;;-4.73;100.00;97041.44;5009507;28;20036;-61
2022/01/30 04:22:35;;;;;;;99.85;37.40;;;;;;;-4.73;100.00;97057.72;5010075;28;20030;-61
2022/01/30 04:25:00;;;;;;;78.72;36.97;;;;;;;-4.76;100.00;97056.00;5009657;28;20026;-61
2022/01/30 04:27:26;;;;;;;79.70;40.65;;;;;;;-4.69;100.00;97058.53;5009961;28;20525;-61
2022/01/30 04:29:52;;;;;;;73.35;36.53;;;;;;;-4.62;100.00;97055.03;5009663;28;20058;-61
2022/01/30 04:32:18;;;;;;;69.78;36.30;;;;;;;-4.65;100.00;97055.91;5009688;28;20026;-60
2022/01/30 04:34:50;;;;;;;76.50;35.97;;;;;;;-4.71;100.00;97048.28;5009719;28;20073;-61
2022/01/30 04:37:24;;;;;;;71.28;37.45;;;;;;;-4.75;100.00;97054.31;5009817;28;20109;-60
2022/01/30 04:54:43;;;;;;;73.65;38.35;;;;;;;-4.51;100.00;97034.38;5009782;28;20125;-61
2022/01/30 05:02:10;;;;;;;80.15;37.13;;;;;;;-4.60;100.00;97030.16;4986442;28;20026;-61
2022/01/30 05:05:09;;;;;;;84.25;36.85;;;;;;;-4.69;100.00;97035.38;4985449;28;20128;-61
2022/01/30 05:07:37;;;;;;;71.43;36.10;;;;;;;-4.76;100.00;97032.03;4998977;28;20057;-62
2022/01/30 05:10:03;;;;;;;63.22;36.63;;;;;;;-4.75;100.00;97020.91;5009684;28;20379;-61
2022/01/30 05:12:36;;;;;;;67.82;36.17;;;;;;;-4.73;100.00;97026.88;5010301;28;20053;-61
2022/01/30 05:15:01;;;;;;;67.55;35.28;;;;;;;-4.80;100.00;97025.22;5009217;28;20045;-60
2022/01/30 05:17:27;;;;;;;99.38;36.10;;;;;;;-4.90;100.00;97021.88;5009310;28;20470;-60
2022/01/30 05:19:53;;;;;;;96.40;36.35;;;;;;;-4.95;100.00;97019.38;5010186;28;20022;-60
2022/01/30 05:22:18;;;;;;;79.15;37.13;;;;;;;-4.92;100.00;97013.34;5009233;28;20018;-61
2022/01/30 05:24:44;;;;;;;75.60;37.45;;;;;;;-4.92;100.00;97005.63;5008872;28;20034;-60
2022/01/30 05:27:10;;;;;;;68.55;36.55;;;;;;;-4.92;100.00;97011.63;5009387;28;20022;-61
2022/01/30 05:29:36;;;;;;;67.18;34.47;;;;;;;-4.83;100.00;97007.25;5009744;28;20128;-60
2022/01/30 05:32:02;;;;;;;78.05;35.10;;;;;;;-4.79;100.00;97001.22;5012131;28;20493;-61
2022/01/30 05:34:28;;;;;;;70.43;34.28;;;;;;;-4.92;100.00;97003.06;5012856;28;20034;-61
2022/01/30 05:36:56;;;;;;;68.80;38.08;;;;;;;-4.94;100.00;97004.78;5012645;28;20524;-61
2022/01/30 05:39:22;;;;;;;70.63;35.25;;;;;;;-4.90;100.00;97002.19;5013227;28;20048;-61
2022/01/30 05:41:47;;;;;;;71.47;35.25;;;;;;;-4.92;100.00;97003.94;5012429;28;20489;-61
2022/01/30 05:44:18;;;;;;;67.65;36.25;;;;;;;-4.88;100.00;97009.88;5012390;28;20044;-61
2022/01/30 05:46:55;;;;;;;62.42;36.38;;;;;;;-4.86;100.00;97012.44;5012557;28;20464;-61
2022/01/30 05:49:21;;;;;;;89.70;43.45;;;;;;;-4.75;100.00;97008.06;5013028;28;20026;-61
2022/01/30 05:51:47;;;;;;;83.35;37.70;;;;;;;-4.70;100.00;97014.00;5012453;28;20533;-61
2022/01/30 05:54:12;;;;;;;65.63;32.10;;;;;;;-4.63;100.00;97013.06;5012361;28;20033;-61
2022/01/30 05:56:37;;;;;;;77.85;37.38;;;;;;;-4.62;100.00;97017.31;5012335;28;20026;-61
2022/01/30 05:59:03;;;;;;;68.90;37.35;;;;;;;-4.65;100.00;97027.63;5012971;28;20092;-61
2022/01/30 06:01:29;;;;;;;65.68;35.03;;;;;;;-4.70;100.00;97021.69;5011790;28;20061;-61
2022/01/30 06:03:54;;;;;;;67.32;36.88;;;;;;;-4.77;100.00;97038.03;5002537;28;20029;-61
2022/01/30 06:06:20;;;;;;;64.55;35.90;;;;;;;-4.76;100.00;97037.16;5011973;28;20026;-61
2022/01/30 06:08:57;;;;;;;88.90;39.70;;;;;;;-4.80;100.00;97038.06;5012201;28;20018;-61
2022/01/30 06:11:23;;;;;;;72.65;37.95;;;;;;;-4.72;100.00;97040.56;5011176;28;20032;-60
2022/01/30 06:13:48;;;;;;;79.20;37.30;;;;;;;-4.79;100.00;97029.50;5011987;28;20417;-61
2022/01/30 06:16:14;;;;;;;76.38;39.30;;;;;;;-4.87;100.00;97034.69;5018509;28;20486;-61
2022/01/30 06:18:39;;;;;;;71.30;37.53;;;;;;;-4.93;100.00;97022.78;5011988;28;20045;-61
2022/01/30 06:21:04;;;;;;;72.68;33.10;;;;;;;-4.98;100.00;97024.50;5012516;28;21012;-60
2022/01/30 06:23:30;;;;;;;97.70;32.53;;;;;;;-5.04;100.00;97020.31;5010468;28;20037;-61
2022/01/30 06:25:56;;;;;;;78.45;33.00;;;;;;;-5.05;100.00;97013.47;5011948;28;20124;-61
2022/01/30 06:28:22;;;;;;;65.95;33.40;;;;;;;-4.94;100.00;97018.50;5011810;28;20075;-61
2022/01/30 06:30:47;;;;;;;65.05;35.78;;;;;;;-4.77;100.00;97009.75;5010203;28;20057;-60
2022/01/30 06:33:12;;;;;;;70.43;33.35;;;;;;;-4.64;100.00;97003.63;5011347;28;20508;-61
2022/01/30 06:35:38;;;;;;;70.75;34.10;;;;;;;-4.64;100.00;97003.63;5011351;28;20449;-60
2022/01/30 06:38:04;;;;;;;68.63;36.72;;;;;;;-4.68;100.00;97011.38;5010801;28;20113;-61
2022/01/30 06:40:30;;;;;;;65.45;38.13;;;;;;;-4.76;100.00;97009.75;5010488;28;20018;-61
2022/01/30 06:42:55;;;;;;;73.47;37.17;;;;;;;-4.70;100.00;97002.84;5011002;28;20041;-61
2022/01/30 06:45:21;;;;;;;66.35;35.22;;;;;;;-4.75;100.00;97008.06;5010264;28;20034;-60
2022/01/30 06:47:47;;;;;;;69.93;34.15;;;;;;;-4.83;100.00;97022.69;5010448;28;20010;-61
2022/01/30 06:50:14;;;;;;;68.95;36.65;;;;;;;-4.77;100.00;97004.63;5010744;28;20029;-60
2022/01/30 06:52:40;;;;;;;77.10;37.40;;;;;;;-4.81;100.00;97011.53;5011014;28;20104;-61
2022/01/30 06:55:07;;;;;;;77.65;36.95;;;;;;;-4.80;100.00;97013.22;5009886;28;20061;-61
2022/01/30 06:57:33;;;;;;;83.72;37.72;;;;;;;-4.82;100.00;97020.09;5003472;28;20022;-61
2022/01/30 06:59:58;;;;;;;86.43;36.00;;;;;;;-4.86;100.00;97017.56;5010432;28;20022;-60
2022/01/30 07:02:24;;;;;;;91.07;40.10;;;;;;;-4.83;100.00;97009.84;5010348;28;20040;-61
2022/01/30 07:04:49;;;;;;;72.88;38.72;;;;;;;-4.85;100.00;97011.56;5011214;28;20030;-61
2022/01/30 07:07:15;;;;;;;84.40;42.33;;;;;;;-4.91;100.00;97015.91;5011123;28;20040;-60
2022/01/30 07:09:41;;;;;;;74.28;40.08;;;;;;;-4.77;100.00;97020.03;5011264;28;20038;-61
2022/01/30 07:12:07;;;;;;;80.05;38.05;;;;;;;-4.78;100.00;97015.78;5010674;28;20025;-61
2022/01/30 07:14:32;;;;;;;78.25;37.53;;;;;;;-4.70;100.00;97034.56;5020513;28;20129;-61
2022/01/30 07:16:58;;;;;;;78.28;40.60;;;;;;;-4.80;100.00;97027.78;5010971;28;20018;-61
2022/01/30 07:19:24;;;;;;;85.25;41.30;;;;;;;-4.84;100.00;97036.41;5011229;28;20465;-61
2022/01/30 07:21:50;;;;;;;82.28;41.38;;;;;;;-4.80;100.00;97027.78;5010069;28;20088;-61
2022/01/30 07:24:15;;;;;;;73.30;39.13;;;;;;;-4.75;100.00;97038.91;5009356;28;20030;-61
2022/01/30 07:26:41;;;;;;;81.85;42.08;;;;;;;-4.71;100.00;97032.84;5010934;28;20101;-60
2022/01/30 07:29:06;;;;;;;81.07;41.60;;;;;;;-4.75;100.00;97029.44;5015583;28;20390;-61
2022/01/30 07:31:32;;;;;;;82.55;41.42;;;;;;;-4.67;100.00;97044.78;5010596;28;20489;-61
2022/01/30 07:33:59;;;;;;;71.15;39.80;;;;;;;-4.67;100.00;97038.78;5010732;28;20034;-60
2022/01/30 07:36:25;;;;;;;75.07;36.75;;;;;;;-4.59;100.00;97031.88;5010826;28;20028;-60
2022/01/30 07:38:51;;;;;;;77.40;38.03;;;;;;;-4.66;100.00;97038.78;5010696;28;20034;-61
2022/01/30 07:41:16;;;;;;;81.40;40.72;;;;;;;-4.59;100.00;97029.31;5010431;28;20030;-61
2022/01/30 07:43:41;;;;;;;76.57;39.40;;;;;;;-4.58;100.00;97031.00;5010313;28;20125;-62
2022/01/30 07:46:07;;;;;;;93.15;41.17;;;;;;;-4.75;100.00;97041.47;5010102;28;20022;-61
2022/01/30 07:48:33;;;;;;;71.13;35.20;;;;;;;-4.73;100.00;97042.28;5010829;28;20627;-61
2022/01/30 07:50:59;;;;;;;67.13;36.33;;;;;;;-4.82;100.00;97044.94;5010116;28;20037;-60
2022/01/30 07:53:24;;;;;;;81.00;39.13;;;;;;;-4.79;100.00;97042.34;5009560;28;20644;-61
2022/01/30 07:55:49;;;;;;;86.03;41.58;;;;;;;-4.71;100.00;97032.84;5010495;28;20108;-61
2022/01/30 07:58:15;;;;;;;75.43;38.13;;;;;;;-4.62;100.00;97034.47;5010284;28;20033;-60
2022/01/30 08:00:40;;;;;;;86.95;41.75;;;;;;;-4.56;100.00;97029.25;5010065;28;20029;-61
2022/01/30 08:03:06;;;;;;;89.72;41.70;;;;;;;-4.60;100.00;97027.59;5010154;28;20029;-60
2022/01/30 08:05:31;;;;;;;88.07;42.97;;;;;;;-4.61;100.00;97037.00;5009861;28;20038;-60
2022/01/30 08:07:57;;;;;;;76.70;40.63;;;;;;;-4.62;100.00;97035.31;5010170;28;20071;-60
2022/01/30 08:10:22;;;;;;;78.43;41.63;;;;;;;-4.64;100.00;97028.50;5008538;28;20026;-60
2022/01/30 08:12:48;;;;;;;88.22;43.25;;;;;;;-4.64;100.00;97024.19;5010084;28;20497;-60
2022/01/30 08:15:13;;;;;;;94.07;43.38;;;;;;;-4.67;100.00;97019.09;5010385;28;20033;-60
2022/01/30 08:17:39;;;;;;;88.82;41.50;;;;;;;-4.60;100.00;97022.47;5009725;28;20107;-60
2022/01/30 08:20:06;;;;;;;90.53;43.55;;;;;;;-4.63;100.00;97025.06;5009981;28;20554;-60
2022/01/30 08:22:33;;;;;;;91.50;44.47;;;;;;;-4.62;100.00;97016.47;5009802;28;20032;-60
2022/01/30 08:24:58;;;;;;;83.97;42.53;;;;;;;-4.62;100.00;97022.47;5009503;28;20504;-60
2022/01/30 08:27:24;;;;;;;94.95;46.50;;;;;;;-4.61;100.00;97019.03;5010230;28;20022;-60
2022/01/30 08:29:49;;;;;;;92.20;42.22;;;;;;;-4.54;100.00;97021.50;5009799;28;20025;-60
2022/01/30 08:32:15;;;;;;;88.82;39.15;;;;;;;-4.71;100.00;97020.00;5009700;28;20717;-60
2022/01/30 08:34:41;;;;;;;76.35;40.45;;;;;;;-4.65;100.00;97014.78;5009680;28;20040;-60
2022/01/30 08:37:06;;;;;;;94.53;40.83;;;;;;;-4.66;100.00;97014.78;5009956;28;20028;-60
2022/01/30 08:39:33;;;;;;;101.82;41.05;;;;;;;-4.66;100.00;97010.50;5009542;28;20038;-60
2022/01/30 08:41:58;;;;;;;80.82;38.42;;;;;;;-4.71;100.00;97004.59;5010417;28;20076;-60
2022/01/30 08:44:24;;;;;;;98.32;38.03;;;;;;;-4.62;100.00;97004.47;5009400;28;20021;-60
2022/01/30 08:46:49;;;;;;;81.40;41.75;;;;;;;-4.64;100.00;97007.94;5009660;28;20382;-60
2022/01/30 08:49:14;;;;;;;97.18;43.38;;;;;;;-4.63;100.00;97002.75;5009689;28;20057;-60
2022/01/30 08:51:40;;;;;;;86.03;42.78;;;;;;;-4.67;100.00;97013.94;5008781;28;20030;-60
2022/01/30 08:54:05;;;;;;;85.82;42.47;;;;;;;-4.63;100.00;97013.06;5008493;28;20646;-60
2022/01/30 08:56:31;;;;;;;89.18;42.03;;;;;;;-4.55;100.00;97007.81;5008861;28;20030;-60
2022/01/30 08:58:57;;;;;;;85.05;41.80;;;;;;;-4.57;100.00;97011.28;5008539;28;20396;-60
2022/01/30 09:01:24;;;;;;;87.93;43.13;;;;;;;-4.63;100.00;97007.91;5007794;28;20105;-60
2022/01/30 09:03:50;;;;;;;94.55;42.90;;;;;;;-4.64;100.00;97013.91;5008534;28;20030;-60
2022/01/30 09:06:15;;;;;;;78.55;40.25;;;;;;;-4.38;100.00;97014.50;5011538;28;20034;-60
2022/01/30 09:08:41;;;;;;;85.18;42.10;;;;;;;-4.25;100.00;97007.50;5012361;28;20104;-60
2022/01/30 09:11:06;;;;;;;91.30;41.80;;;;;;;-4.09;100.00;97010.72;5011997;28;20467;-60
2022/01/30 09:13:32;;;;;;;84.75;41.10;;;;;;;-3.93;100.00;97013.94;5012248;28;20127;-60
2022/01/30 09:15:58;;;;;;;77.97;39.10;;;;;;;-3.81;100.00;97015.47;5011983;28;20030;-60
2022/01/30 09:18:26;;;;;;;79.68;42.05;;;;;;;-3.55;100.00;97014.25;5010724;28;20072;-60
2022/01/30 09:20:53;;;;;;;86.47;42.15;;;;;;;-3.26;100.00;97011.22;5012354;28;20584;-60
2022/01/30 09:23:18;;;;;;;79.88;40.53;;;;;;;-3.05;100.00;97017.78;5012503;28;20014;-59
2022/01/30 09:25:45;;;;;;;87.18;48.40;;;;;;;-2.88;100.00;97012.31;5010313;28;20056;-60
2022/01/30 09:28:10;;;;;;;71.07;38.38;;;;;;;-2.71;100.00;97011.19;5009640;28;20026;-61
2022/01/30 09:30:36;;;;;;;68.57;37.75;;;;;;;-2.55;100.00;97018.59;5009630;28;20030;-60
2022/01/30 09:33:01;;;;;;;73.82;39.85;;;;;;;-2.41;99.41;97019.19;5012380;28;20125;-61
2022/01/30 09:35:27;;;;;;;74.22;40.22;;;;;;;-2.16;98.04;97011.84;5011190;28;20040;-60
2022/01/30 09:37:52;;;;;;;70.25;40.47;;;;;;;-2.03;97.14;97009.84;5012197;28;20146;-61
2022/01/30 09:40:18;;;;;;;72.47;41.03;;;;;;;-1.93;96.54;97007.94;5011588;28;20465;-63
2022/01/30 09:42:46;;;;;;;73.43;39.47;;;;;;;-2.00;96.22;97019.25;5011511;28;20084;-62
2022/01/30 09:45:14;;;;;;;72.85;41.15;;;;;;;-1.74;96.46;97000.63;5009837;28;20793;-61
2022/01/30 09:47:41;;;;;;;60.92;37.60;;;;;;;-1.44;95.06;97007.72;5005966;28;20354;-62
2022/01/30 09:50:08;;;;;;;63.08;37.70;;;;;;;-1.22;93.29;97002.03;5012083;28;20033;-63
2022/01/30 09:52:33;;;;;;;63.50;37.42;;;;;;;-1.03;92.59;97007.59;5011587;28;20021;-62
2022/01/30 09:54:59;;;;;;;63.08;38.30;;;;;;;-0.81;91.62;96997.56;5011683;28;20033;-61
2022/01/30 09:57:24;;;;;;;62.35;39.20;;;;;;;-0.61;91.63;96998.78;5011619;28;20854;-62
2022/01/30 09:59:50;;;;;;;63.95;37.85;;;;;;;-0.46;89.23;96993.16;5011119;28;20034;-61
2022/01/30 10:02:15;;;;;;;62.25;38.88;;;;;;;-0.28;89.03;96992.72;5010713;28;20018;-60
2022/01/30 10:04:41;;;;;;;55.47;37.50;;;;;;;-0.12;87.68;96996.53;5011181;28;20025;-62
2022/01/30 10:07:13;;;;;;;52.03;33.67;;;;;;;0.00;87.39;97003.13;5011885;28;20397;-62
2022/01/30 10:09:44;;;;;;;44.05;31.75;;;;;;;0.04;87.97;97002.16;5010465;28;20564;-61
2022/01/30 10:12:16;;;;;;;38.45;26.35;;;;;;;0.30;86.76;97004.84;5007960;28;20033;-61
2022/01/30 10:15:01;;;;;;;44.42;28.02;;;;;;;0.28;86.25;97002.31;5009335;28;20383;-61
2022/01/30 10:17:27;;;;;;;45.78;28.67;;;;;;;0.53;84.87;97004.97;5009080;28;20508;-61
2022/01/30 10:20:01;;;;;;;51.83;34.40;;;;;;;0.69;85.32;97000.19;5011815;28;20034;-61
2022/01/30 10:22:26;;;;;;;56.47;37.40;;;;;;;0.87;84.61;97003.06;5010590;28;20040;-61
2022/01/30 10:24:51;;;;;;;47.47;33.63;;;;;;;0.91;84.02;96996.91;5010619;28;20042;-62
2022/01/30 10:27:22;;;;;;;48.45;31.50;;;;;;;1.26;84.31;96996.63;5011601;28;20432;-61
2022/01/30 10:29:59;;;;;;;46.30;29.92;;;;;;;0.99;85.04;96991.44;5011440;28;20117;-61
2022/01/30 10:32:26;;;;;;;42.45;29.95;;;;;;;0.96;85.33;96997.59;5010438;28;20033;-61
2022/01/30 10:35:05;;;;;;;45.20;30.00;;;;;;;1.11;85.95;96992.81;5009658;28;20034;-61
2022/01/30 10:37:32;;;;;;;40.92;27.52;;;;;;;1.42;84.31;96982.19;5009467;28;20096;-62
2022/01/30 10:40:08;;;;;;;41.30;27.83;;;;;;;1.40;80.21;96986.59;5008301;28;20022;-61
2022/01/30 10:42:48;;;;;;;44.83;30.70;;;;;;;1.34;81.96;96980.78;5009260;28;20026;-53
2022/01/30 10:45:21;;;;;;;45.63;31.05;;;;;;;1.41;82.04;96972.72;5011701;28;20018;-49
2022/01/30 10:47:46;;;;;;;50.58;31.38;;;;;;;1.74;82.73;96971.56;5008872;28;20032;-49
2022/01/30 10:50:22;;;;;;;46.15;31.80;;;;;;;2.11;82.08;96967.59;5010812;28;20026;-49
2022/01/30 10:52:59;;;;;;;41.92;28.48;;;;;;;2.27;81.38;96957.47;5010533;28;20022;-51
2022/01/30 10:55:51;;;;;;;36.40;25.40;;;;;;;2.51;80.40;96949.59;5007752;28;20520;-53
2022/01/30 10:58:21;;;;;;;31.95;21.60;;;;;;;2.86;79.71;96949.94;5007871;28;20041;-53
2022/01/30 11:00:58;;;;;;;29.00;20.90;;;;;;;2.75;78.39;96944.31;5010681;28;20025;-51
2022/01/30 11:03:40;;;;;;;34.17;24.98;;;;;;;2.73;74.89;96940.94;5009372;28;20481;-49
2022/01/30 11:06:09;;;;;;;37.80;25.75;;;;;;;3.00;76.14;96925.94;5009578;28;20513;-51
2022/01/30 11:08:38;;;;;;;33.95;25.10;;;;;;;3.42;72.89;96931.97;5009314;28;20041;-50
2022/01/30 11:11:09;;;;;;;43.63;24.80;;;;;;;3.66;73.27;96929.22;5009143;28;20034;-53
2022/01/30 11:13:47;;;;;;;33.95;25.83;;;;;;;3.59;70.60;96919.97;5008160;28;20034;-49
2022/01/30 11:18:59;;;;;;;30.85;21.17;;;;;;;4.03;68.29;96913.66;5009710;28;20129;-49
2022/01/30 11:21:26;;;;;;;33.08;23.08;;;;;;;4.31;66.52;96914.94;5009944;28;20120;-50
2022/01/30 11:23:52;;;;;;;31.30;23.35;;;;;;;4.62;68.14;96904.81;5010070;28;20349;-50
2022/01/30 11:26:18;;;;;;;25.17;19.98;;;;;;;5.00;65.78;96899.44;5009999;28;20034;-47
2022/01/30 11:28:45;;;;;;;26.45;18.95;;;;;;;5.28;64.19;96901.47;5007680;28;20034;-53
2022/01/30 11:31:14;;;;;;;25.15;18.77;;;;;;;5.66;64.65;96884.72;5010857;28;20383;-50
2022/01/30 11:33:41;;;;;;;50.15;32.15;;;;;;;5.68;66.07;96877.66;5011030;28;20059;-52
2022/01/30 11:36:07;;;;;;;47.58;33.70;;;;;;;5.22;67.45;96882.69;5010876;28;20032;-51
2022/01/30 11:38:33;;;;;;;47.15;29.80;;;;;;;5.22;67.43;96880.91;5007555;28;20021;-50
2022/01/30 11:41:12;;;;;;;56.75;33.33;;;;;;;5.32;67.94;96863.00;5005698;28;20557;-50
2022/01/30 11:43:37;;;;;;;55.55;36.58;;;;;;;4.85;69.53;96859.28;5005276;28;20065;-51
2022/01/30 11:46:21;;;;;;;53.10;35.72;;;;;;;4.96;69.93;96854.38;5010041;28;20034;-50
2022/01/30 11:49:14;;;;;;;56.97;34.42;;;;;;;5.25;68.20;96841.56;5008639;28;20029;-49
2022/01/30 11:51:50;;;;;;;56.17;35.88;;;;;;;5.13;68.59;96845.66;5011820;28;20024;-53
2022/01/30 11:54:38;;;;;;;56.47;33.47;;;;;;;5.76;66.09;96818.88;5004749;28;20033;-52
2022/01/30 11:57:24;;;;;;;57.83;33.83;;;;;;;5.83;65.24;96817.63;5008027;28;20069;-52
2022/01/30 11:59:50;;;;;;;;;;;;;;;5.61;65.47;96816.19;5008164;28;20037;-48
2022/01/30 12:02:25;;;;;;;53.20;30.50;;;;;;;5.39;65.91;96812.13;5009162;28;19917;-50
2022/01/30 12:04:57;;;;;;;48.15;33.08;;;;;;;5.09;66.64;96806.78;5008038;28;20053;-54
2022/01/30 12:07:38;;;;;;;46.15;28.92;;;;;;;5.42;66.43;96801.53;5006559;28;20034;-50
2022/01/30 12:10:15;;;;;;;58.25;32.80;;;;;;;5.42;64.78;96796.31;5007203;28;20026;-51